Ana Sayfa
METAR-TAF:

METAR-TAF

Havaalanları :

Kerpe, Yunanistan

Enlem: 35-24-51N, Boylam: 027-08-54E, yükseklik: 6 m

Güncel hava durumu gözlemi

Rapor saat 12:20 UTC de 39 dakika önce yapıldı.
Rüzgar batı/kuzeybatıdan 20 kt
Sıcaklık 30°C
Nem 55%
Basınç 1006 hPa
Görüş mesafesi 10 km veya daha fazla
1600 ft yükseklikte az bulutlu

METAR: LGKP 201220Z 29020KT 9999 FEW016 30/20 Q1006

Saat: 15:59 (12:59 UTC)

Tahmin

Rapor saat 11:00 UTC de 1 saat ve 59 dakika önce yapıldı.
Ayın 20'si saat 12 UTC'den ayın 20'si saat 21 UTC'ye kadar geçerli Tahmin
Rüzgar batı/kuzeybatıdan 15 kt ve 25 kt'a kadar ani rüzgarlar
Görüş mesafesi 10 km veya daha fazla
1800 ft yükseklikte az bulutlu

TAF: LGKP 201100Z 2012/2021 29015G25KT 9999 FEW018

4.000'den fazla havaalanı için hava durumu gözlemleri ve tahminleri (METAR ve TAF raporları).

Kullanılabilir istasyonlar harita üzerinde sarı ve kırmızı noktalarla gösterilir.

İstasyonun adını görmek için fareyi noktanın üzerinde gezdirin.

Sonrasında hava gözlem ve tahminlerini görmek için tıklayın.

Haritayı değiştirmek için: yaklaştırmak için siyah artı işaretli yeşil düğmeye ve uzaklaştırmak için de eksi işaretli düğmeye hızla tıklayın; bitişik haritalar için yeşil okları kullanın.


METAR-TAF: